sensor_id;sensor_type;location;lat;lon;timestamp;pressure;altitude;pressure_sealevel;temperature;humidity
77090;BME280;66028;53.558;9.950;2024-03-23T00:54:31;100558.69;;;6.14;91.83
77090;BME280;66028;53.558;9.950;2024-03-23T00:56:57;100553.75;;;6.11;91.66
77090;BME280;66028;53.558;9.950;2024-03-23T00:59:22;100546.91;;;6.16;91.66
77090;BME280;66028;53.558;9.950;2024-03-23T01:01:52;100551.88;;;6.12;92.15
77090;BME280;66028;53.558;9.950;2024-03-23T01:04:17;100546.94;;;6.09;91.62
77090;BME280;66028;53.558;9.950;2024-03-23T01:06:42;100530.41;;;6.05;91.88
77090;BME280;66028;53.558;9.950;2024-03-23T01:09:07;100539.75;;;6.03;91.58
77090;BME280;66028;53.558;9.950;2024-03-23T01:11:35;100539.91;;;6.08;91.46
77090;BME280;66028;53.558;9.950;2024-03-23T01:14:01;100536.00;;;6.04;91.99
77090;BME280;66028;53.558;9.950;2024-03-23T01:16:26;100537.22;;;6.08;91.91
77090;BME280;66028;53.558;9.950;2024-03-23T01:18:51;100539.28;;;6.06;92.36
77090;BME280;66028;53.558;9.950;2024-03-23T01:21:16;100532.25;;;6.11;92.69
77090;BME280;66028;53.558;9.950;2024-03-23T01:23:42;100523.16;;;6.06;92.74
77090;BME280;66028;53.558;9.950;2024-03-23T01:26:07;100511.81;;;6.04;92.71
77090;BME280;66028;53.558;9.950;2024-03-23T01:28:33;100508.97;;;5.99;92.57
77090;BME280;66028;53.558;9.950;2024-03-23T01:30:58;100516.00;;;6.00;93.13
77090;BME280;66028;53.558;9.950;2024-03-23T01:33:23;100513.72;;;5.97;93.09
77090;BME280;66028;53.558;9.950;2024-03-23T01:35:48;100519.09;;;5.97;93.06
77090;BME280;66028;53.558;9.950;2024-03-23T01:38:14;100516.00;;;5.93;93.72
77090;BME280;66028;53.558;9.950;2024-03-23T01:40:39;100501.31;;;6.02;92.89
77090;BME280;66028;53.558;9.950;2024-03-23T01:43:05;100499.03;;;5.99;92.64
77090;BME280;66028;53.558;9.950;2024-03-23T01:45:33;100502.38;;;5.95;93.22
77090;BME280;66028;53.558;9.950;2024-03-23T01:47:59;100498.25;;;5.86;93.63
77090;BME280;66028;53.558;9.950;2024-03-23T01:50:25;100489.59;;;5.90;93.41
77090;BME280;66028;53.558;9.950;2024-03-23T01:52:50;100489.34;;;5.92;93.23
77090;BME280;66028;53.558;9.950;2024-03-23T01:55:16;100480.25;;;5.93;93.46
77090;BME280;66028;53.558;9.950;2024-03-23T01:57:41;100482.13;;;5.86;93.94
77090;BME280;66028;53.558;9.950;2024-03-23T02:00:07;100477.63;;;5.79;93.68
77090;BME280;66028;53.558;9.950;2024-03-23T02:02:32;100472.28;;;5.73;93.64
77090;BME280;66028;53.558;9.950;2024-03-23T02:04:58;100468.91;;;5.84;93.63
77090;BME280;66028;53.558;9.950;2024-03-23T02:07:24;100467.13;;;5.71;94.08
77090;BME280;66028;53.558;9.950;2024-03-23T02:09:53;100469.00;;;5.71;94.21
77090;BME280;66028;53.558;9.950;2024-03-23T02:12:19;100462.19;;;5.68;94.38
77090;BME280;66028;53.558;9.950;2024-03-23T02:14:44;100468.78;;;5.72;94.38
77090;BME280;66028;53.558;9.950;2024-03-23T02:17:10;100451.44;;;5.68;94.95
77090;BME280;66028;53.558;9.950;2024-03-23T02:19:35;100451.22;;;5.70;94.43
77090;BME280;66028;53.558;9.950;2024-03-23T02:22:00;100446.50;;;5.65;94.21
77090;BME280;66028;53.558;9.950;2024-03-23T02:24:26;100441.56;;;5.62;94.70
77090;BME280;66028;53.558;9.950;2024-03-23T02:26:51;100442.81;;;5.60;94.54
77090;BME280;66028;53.558;9.950;2024-03-23T02:29:34;100438.28;;;5.60;94.78
77090;BME280;66028;53.558;9.950;2024-03-23T02:32:00;100438.91;;;5.56;95.36
77090;BME280;66028;53.558;9.950;2024-03-23T02:34:26;100426.91;;;5.58;94.84
77090;BME280;66028;53.558;9.950;2024-03-23T02:36:51;100422.16;;;5.60;94.42
77090;BME280;66028;53.558;9.950;2024-03-23T02:39:16;100428.16;;;5.56;94.44
77090;BME280;66028;53.558;9.950;2024-03-23T02:41:42;100431.31;;;5.53;94.66
77090;BME280;66028;53.558;9.950;2024-03-23T02:44:07;100429.66;;;5.52;94.55
77090;BME280;66028;53.558;9.950;2024-03-23T02:46:33;100423.47;;;5.51;94.63
77090;BME280;66028;53.558;9.950;2024-03-23T02:48:58;100424.91;;;5.54;95.37
77090;BME280;66028;53.558;9.950;2024-03-23T02:51:23;100422.63;;;5.51;95.29
77090;BME280;66028;53.558;9.950;2024-03-23T02:53:48;100424.69;;;5.49;95.40
77090;BME280;66028;53.558;9.950;2024-03-23T02:56:14;100424.91;;;5.47;95.12
77090;BME280;66028;53.558;9.950;2024-03-23T02:58:42;100423.72;;;5.43;95.10
77090;BME280;66028;53.558;9.950;2024-03-23T03:01:07;100429.44;;;5.53;95.05
77090;BME280;66028;53.558;9.950;2024-03-23T03:03:32;100409.22;;;5.44;94.78
77090;BME280;66028;53.558;9.950;2024-03-23T03:05:57;100408.44;;;5.37;95.06
77090;BME280;66028;53.558;9.950;2024-03-23T03:08:23;100402.66;;;5.40;95.17
77090;BME280;66028;53.558;9.950;2024-03-23T03:10:48;100401.22;;;5.37;95.35
77090;BME280;66028;53.558;9.950;2024-03-23T03:13:13;100402.88;;;5.32;95.57
77090;BME280;66028;53.558;9.950;2024-03-23T03:15:43;100397.72;;;5.37;95.22
77090;BME280;66028;53.558;9.950;2024-03-23T03:18:08;100389.25;;;5.40;95.68
77090;BME280;66028;53.558;9.950;2024-03-23T03:20:33;100391.53;;;5.36;95.52
77090;BME280;66028;53.558;9.950;2024-03-23T03:22:59;100400.41;;;5.37;95.31
77090;BME280;66028;53.558;9.950;2024-03-23T03:25:25;100393.38;;;5.36;95.29
77090;BME280;66028;53.558;9.950;2024-03-23T03:27:50;100383.47;;;5.36;94.84
77090;BME280;66028;53.558;9.950;2024-03-23T03:30:15;100388.06;;;5.29;95.55
77090;BME280;66028;53.558;9.950;2024-03-23T03:32:41;100376.22;;;5.37;95.42
77090;BME280;66028;53.558;9.950;2024-03-23T03:35:06;100371.28;;;5.34;95.07
77090;BME280;66028;53.558;9.950;2024-03-23T03:37:32;100365.75;;;5.29;95.45
77090;BME280;66028;53.558;9.950;2024-03-23T03:39:57;100370.09;;;5.30;95.42
77090;BME280;66028;53.558;9.950;2024-03-23T03:42:22;100361.22;;;5.29;95.83
77090;BME280;66028;53.558;9.950;2024-03-23T03:44:47;100367.16;;;5.31;95.69
77090;BME280;66028;53.558;9.950;2024-03-23T03:47:13;100356.44;;;5.31;95.13
77090;BME280;66028;53.558;9.950;2024-03-23T03:49:38;100353.31;;;5.34;94.83
77090;BME280;66028;53.558;9.950;2024-03-23T03:52:03;100350.03;;;5.32;95.52
77090;BME280;66028;53.558;9.950;2024-03-23T03:54:29;100349.00;;;5.33;95.07
77090;BME280;66028;53.558;9.950;2024-03-23T03:56:54;100342.03;;;5.26;95.51
77090;BME280;66028;53.558;9.950;2024-03-23T03:59:19;100351.13;;;5.25;95.42
77090;BME280;66028;53.558;9.950;2024-03-23T04:01:45;100344.91;;;5.31;95.68
77090;BME280;66028;53.558;9.950;2024-03-23T04:04:10;100348.63;;;5.23;95.09
77090;BME280;66028;53.558;9.950;2024-03-23T04:06:36;100341.00;;;5.20;95.59
77090;BME280;66028;53.558;9.950;2024-03-23T04:09:01;100341.19;;;5.25;95.67
77090;BME280;66028;53.558;9.950;2024-03-23T04:11:27;100341.00;;;5.27;95.24
77090;BME280;66028;53.558;9.950;2024-03-23T04:13:52;100338.72;;;5.30;95.36
77090;BME280;66028;53.558;9.950;2024-03-23T04:16:34;100340.16;;;5.26;95.13
77090;BME280;66028;53.558;9.950;2024-03-23T04:18:59;100332.47;;;5.36;94.78
77090;BME280;66028;53.558;9.950;2024-03-23T04:21:25;100332.13;;;5.26;95.21
77090;BME280;66028;53.558;9.950;2024-03-23T04:23:50;100334.03;;;5.19;95.58
77090;BME280;66028;53.558;9.950;2024-03-23T04:26:15;100324.09;;;5.20;95.24
77090;BME280;66028;53.558;9.950;2024-03-23T04:28:41;100305.13;;;5.15;95.56
77090;BME280;66028;53.558;9.950;2024-03-23T04:31:06;100305.13;;;5.15;95.89
77090;BME280;66028;53.558;9.950;2024-03-23T04:33:31;100321.25;;;5.08;95.41
77090;BME280;66028;53.558;9.950;2024-03-23T04:35:57;100325.53;;;5.22;95.03
77090;BME280;66028;53.558;9.950;2024-03-23T04:38:22;100335.66;;;5.20;95.05
77090;BME280;66028;53.558;9.950;2024-03-23T04:40:57;100345.13;;;5.23;94.47
77090;BME280;66028;53.558;9.950;2024-03-23T04:43:23;100343.31;;;5.17;94.89
77090;BME280;66028;53.558;9.950;2024-03-23T04:45:48;100345.81;;;5.12;94.91
77090;BME280;66028;53.558;9.950;2024-03-23T04:48:14;100342.28;;;5.18;95.02
77090;BME280;66028;53.558;9.950;2024-03-23T04:50:39;100347.69;;;5.11;94.82
77090;BME280;66028;53.558;9.950;2024-03-23T04:53:05;100353.25;;;5.10;94.84
77090;BME280;66028;53.558;9.950;2024-03-23T04:55:30;100342.56;;;5.03;95.20
77090;BME280;66028;53.558;9.950;2024-03-23T04:57:56;100333.06;;;5.07;96.08
77090;BME280;66028;53.558;9.950;2024-03-23T05:00:21;100311.19;;;5.03;95.44
77090;BME280;66028;53.558;9.950;2024-03-23T05:02:48;100300.66;;;5.02;94.96
77090;BME280;66028;53.558;9.950;2024-03-23T05:05:14;100310.53;;;5.08;94.77
77090;BME280;66028;53.558;9.950;2024-03-23T05:07:39;100308.09;;;5.06;94.91
77090;BME280;66028;53.558;9.950;2024-03-23T05:10:07;100317.94;;;5.13;94.76
77090;BME280;66028;53.558;9.950;2024-03-23T05:12:35;100307.78;;;5.21;93.84
77090;BME280;66028;53.558;9.950;2024-03-23T05:15:00;100306.94;;;5.21;93.79
77090;BME280;66028;53.558;9.950;2024-03-23T05:17:26;100314.22;;;5.14;94.34
77090;BME280;66028;53.558;9.950;2024-03-23T05:19:51;100312.78;;;5.18;93.72
77090;BME280;66028;53.558;9.950;2024-03-23T05:22:16;100308.81;;;5.20;93.90
77090;BME280;66028;53.558;9.950;2024-03-23T05:24:42;100308.44;;;5.17;94.07
77090;BME280;66028;53.558;9.950;2024-03-23T05:27:07;100302.63;;;5.20;93.32
77090;BME280;66028;53.558;9.950;2024-03-23T05:29:32;100305.53;;;5.18;93.08
77090;BME280;66028;53.558;9.950;2024-03-23T05:31:57;100301.56;;;5.21;93.87
77090;BME280;66028;53.558;9.950;2024-03-23T05:34:23;100307.41;;;5.18;92.92
77090;BME280;66028;53.558;9.950;2024-03-23T05:36:48;100310.28;;;5.16;93.70
77090;BME280;66028;53.558;9.950;2024-03-23T05:39:14;100298.31;;;5.19;92.93
77090;BME280;66028;53.558;9.950;2024-03-23T05:41:41;100301.16;;;5.24;92.80
77090;BME280;66028;53.558;9.950;2024-03-23T05:44:06;100293.09;;;5.24;92.65
77090;BME280;66028;53.558;9.950;2024-03-23T05:46:32;100292.34;;;5.17;92.83
77090;BME280;66028;53.558;9.950;2024-03-23T05:49:01;100276.38;;;5.22;92.70
77090;BME280;66028;53.558;9.950;2024-03-23T05:51:27;100273.69;;;5.28;92.58
77090;BME280;66028;53.558;9.950;2024-03-23T05:53:53;100268.34;;;5.22;92.11
77090;BME280;66028;53.558;9.950;2024-03-23T05:56:19;100268.94;;;5.24;91.80
77090;BME280;66028;53.558;9.950;2024-03-23T05:58:45;100270.66;;;5.18;92.47
77090;BME280;66028;53.558;9.950;2024-03-23T06:01:11;100270.41;;;5.20;92.37
77090;BME280;66028;53.558;9.950;2024-03-23T06:03:37;100273.91;;;5.20;92.88
77090;BME280;66028;53.558;9.950;2024-03-23T06:06:03;100276.56;;;5.27;92.50
77090;BME280;66028;53.558;9.950;2024-03-23T06:08:29;100272.56;;;5.36;91.22
77090;BME280;66028;53.558;9.950;2024-03-23T06:10:54;100272.38;;;5.37;91.55
77090;BME280;66028;53.558;9.950;2024-03-23T06:13:20;100274.88;;;5.32;91.34
77090;BME280;66028;53.558;9.950;2024-03-23T06:15:49;100273.22;;;5.31;91.40
77090;BME280;66028;53.558;9.950;2024-03-23T06:18:15;100275.59;;;5.46;91.47
77090;BME280;66028;53.558;9.950;2024-03-23T06:20:40;100273.94;;;5.45;91.28
77090;BME280;66028;53.558;9.950;2024-03-23T06:23:05;100278.47;;;5.51;90.59
77090;BME280;66028;53.558;9.950;2024-03-23T06:25:30;100274.53;;;5.54;89.89
77090;BME280;66028;53.558;9.950;2024-03-23T06:27:56;100268.94;;;5.55;90.30
77090;BME280;66028;53.558;9.950;2024-03-23T06:30:23;100276.31;;;5.60;90.36
77090;BME280;66028;53.558;9.950;2024-03-23T06:32:48;100260.97;;;5.67;89.94
77090;BME280;66028;53.558;9.950;2024-03-23T06:35:14;100260.91;;;5.73;89.81
77090;BME280;66028;53.558;9.950;2024-03-23T06:37:39;100258.44;;;5.72;89.05
77090;BME280;66028;53.558;9.950;2024-03-23T06:40:07;100263.81;;;5.72;89.42
77090;BME280;66028;53.558;9.950;2024-03-23T06:42:34;100265.34;;;5.86;89.03
77090;BME280;66028;53.558;9.950;2024-03-23T06:45:00;100259.97;;;5.86;88.33
77090;BME280;66028;53.558;9.950;2024-03-23T06:47:25;100260.59;;;5.88;87.77
77090;BME280;66028;53.558;9.950;2024-03-23T06:49:50;100254.94;;;5.96;88.32
77090;BME280;66028;53.558;9.950;2024-03-23T06:52:16;100260.09;;;5.98;87.79
77090;BME280;66028;53.558;9.950;2024-03-23T06:54:41;100261.88;;;6.04;87.15
77090;BME280;66028;53.558;9.950;2024-03-23T06:57:06;100249.06;;;5.81;88.18
77090;BME280;66028;53.558;9.950;2024-03-23T06:59:32;100256.16;;;5.75;88.31
77090;BME280;66028;53.558;9.950;2024-03-23T07:01:57;100254.19;;;5.89;88.39
77090;BME280;66028;53.558;9.950;2024-03-23T07:04:22;100256.66;;;5.91;88.21
77090;BME280;66028;53.558;9.950;2024-03-23T07:06:48;100255.03;;;5.83;87.98
77090;BME280;66028;53.558;9.950;2024-03-23T07:09:13;100258.09;;;5.87;88.10
77090;BME280;66028;53.558;9.950;2024-03-23T07:11:38;100253.06;;;5.97;87.40
77090;BME280;66028;53.558;9.950;2024-03-23T07:14:04;100252.78;;;6.05;87.49
77090;BME280;66028;53.558;9.950;2024-03-23T07:16:29;100255.91;;;6.20;86.90
77090;BME280;66028;53.558;9.950;2024-03-23T07:18:54;100261.09;;;6.40;86.65
77090;BME280;66028;53.558;9.950;2024-03-23T07:21:20;100263.44;;;6.66;84.42
77090;BME280;66028;53.558;9.950;2024-03-23T07:23:46;100260.84;;;6.60;83.89
77090;BME280;66028;53.558;9.950;2024-03-23T07:26:11;100268.69;;;6.61;83.66
77090;BME280;66028;53.558;9.950;2024-03-23T07:28:36;100271.50;;;6.66;83.69
77090;BME280;66028;53.558;9.950;2024-03-23T07:31:04;100261.50;;;6.73;83.47
77090;BME280;66028;53.558;9.950;2024-03-23T07:33:29;100266.19;;;6.78;82.51
77090;BME280;66028;53.558;9.950;2024-03-23T07:35:55;100256.94;;;6.74;83.32
77090;BME280;66028;53.558;9.950;2024-03-23T07:38:20;100255.97;;;7.40;82.82
77090;BME280;66028;53.558;9.950;2024-03-23T07:40:45;100255.31;;;7.56;82.09
77090;BME280;66028;53.558;9.950;2024-03-23T07:43:10;100249.97;;;7.38;81.21
77090;BME280;66028;53.558;9.950;2024-03-23T07:45:36;100254.69;;;7.42;81.18
77090;BME280;66028;53.558;9.950;2024-03-23T07:48:03;100259.41;;;7.82;79.52
77090;BME280;66028;53.558;9.950;2024-03-23T07:50:28;100250.75;;;8.03;78.50
77090;BME280;66028;53.558;9.950;2024-03-23T07:52:53;100246.03;;;7.99;78.07
77090;BME280;66028;53.558;9.950;2024-03-23T07:55:19;100252.72;;;8.19;77.32
77090;BME280;66028;53.558;9.950;2024-03-23T07:57:44;100246.50;;;8.42;76.11
77090;BME280;66028;53.558;9.950;2024-03-23T08:00:09;100248.19;;;8.60;74.82
77090;BME280;66028;53.558;9.950;2024-03-23T08:02:35;100247.00;;;8.68;75.10
77090;BME280;66028;53.558;9.950;2024-03-23T08:05:00;100249.94;;;8.66;74.72
77090;BME280;66028;53.558;9.950;2024-03-23T08:07:25;100243.63;;;8.89;73.79
77090;BME280;66028;53.558;9.950;2024-03-23T08:09:50;100237.41;;;9.17;73.09
77090;BME280;66028;53.558;9.950;2024-03-23T08:12:16;100244.59;;;9.45;71.65
77090;BME280;66028;53.558;9.950;2024-03-23T08:14:41;100230.03;;;9.46;70.77
77090;BME280;66028;53.558;9.950;2024-03-23T08:17:06;100230.84;;;9.80;70.11
77090;BME280;66028;53.558;9.950;2024-03-23T08:19:31;100238.53;;;9.88;70.58
77090;BME280;66028;53.558;9.950;2024-03-23T08:21:57;100234.34;;;9.80;69.84
77090;BME280;66028;53.558;9.950;2024-03-23T08:24:22;100223.72;;;10.29;69.48
77090;BME280;66028;53.558;9.950;2024-03-23T08:26:47;100229.72;;;10.14;68.14
77090;BME280;66028;53.558;9.950;2024-03-23T08:29:12;100229.69;;;10.31;68.34
77090;BME280;66028;53.558;9.950;2024-03-23T08:31:37;100225.22;;;10.63;67.06
77090;BME280;66028;53.558;9.950;2024-03-23T08:34:04;100219.25;;;10.61;66.03
77090;BME280;66028;53.558;9.950;2024-03-23T08:36:29;100222.69;;;10.78;64.77
77090;BME280;66028;53.558;9.950;2024-03-23T08:38:55;100230.59;;;10.36;65.67
77090;BME280;66028;53.558;9.950;2024-03-23T08:41:21;100220.00;;;10.35;65.95
77090;BME280;66028;53.558;9.950;2024-03-23T08:43:46;100219.03;;;9.86;65.98
77090;BME280;66028;53.558;9.950;2024-03-23T08:46:13;100218.59;;;9.38;68.30
77090;BME280;66028;53.558;9.950;2024-03-23T08:48:42;100214.72;;;9.34;68.08
77090;BME280;66028;53.558;9.950;2024-03-23T08:51:11;100215.03;;;9.21;68.92
77090;BME280;66028;53.558;9.950;2024-03-23T08:53:37;100214.41;;;9.14;69.54
77090;BME280;66028;53.558;9.950;2024-03-23T08:56:03;100211.28;;;9.22;69.12
77090;BME280;66028;53.558;9.950;2024-03-23T08:58:30;100212.09;;;9.23;69.50
77090;BME280;66028;53.558;9.950;2024-03-23T09:01:02;100202.50;;;9.82;68.04
77090;BME280;66028;53.558;9.950;2024-03-23T09:03:28;100211.47;;;9.66;67.89
77090;BME280;66028;53.558;9.950;2024-03-23T09:05:53;100203.16;;;9.56;66.59
77090;BME280;66028;53.558;9.950;2024-03-23T09:08:20;100198.34;;;10.13;64.80
77090;BME280;66028;53.558;9.950;2024-03-23T09:10:45;100197.06;;;10.86;62.40
77090;BME280;66028;53.558;9.950;2024-03-23T09:13:10;100195.34;;;10.31;62.92
77090;BME280;66028;53.558;9.950;2024-03-23T09:15:37;100192.88;;;10.30;63.21
77090;BME280;66028;53.558;9.950;2024-03-23T09:18:03;100199.44;;;9.95;63.07
77090;BME280;66028;53.558;9.950;2024-03-23T09:20:29;100197.84;;;9.78;64.15
77090;BME280;66028;53.558;9.950;2024-03-23T09:22:57;100196.41;;;9.53;65.19
77090;BME280;66028;53.558;9.950;2024-03-23T09:25:22;100199.59;;;9.17;63.57
77090;BME280;66028;53.558;9.950;2024-03-23T09:27:47;100201.19;;;9.01;64.26
77090;BME280;66028;53.558;9.950;2024-03-23T09:30:13;100200.84;;;8.97;64.64
77090;BME280;66028;53.558;9.950;2024-03-23T09:32:39;100205.88;;;9.72;62.35
77090;BME280;66028;53.558;9.950;2024-03-23T09:35:04;100199.00;;;9.65;61.18
77090;BME280;66028;53.558;9.950;2024-03-23T09:37:30;100187.28;;;9.43;60.58
77090;BME280;66028;53.558;9.950;2024-03-23T09:39:55;100193.84;;;9.30;61.32
77090;BME280;66028;53.558;9.950;2024-03-23T09:42:20;100189.50;;;9.12;61.64
77090;BME280;66028;53.558;9.950;2024-03-23T09:44:45;100188.28;;;9.03;62.33
77090;BME280;66028;53.558;9.950;2024-03-23T09:47:12;100200.78;;;8.92;62.08
77090;BME280;66028;53.558;9.950;2024-03-23T09:49:37;100194.75;;;9.02;61.94
77090;BME280;66028;53.558;9.950;2024-03-23T09:52:03;100197.34;;;9.30;61.57
77090;BME280;66028;53.558;9.950;2024-03-23T09:54:28;100184.28;;;9.39;60.82
77090;BME280;66028;53.558;9.950;2024-03-23T09:56:54;100184.53;;;9.37;61.75
77090;BME280;66028;53.558;9.950;2024-03-23T09:59:19;100180.63;;;10.05;60.06
77090;BME280;66028;53.558;9.950;2024-03-23T10:01:44;100172.59;;;10.10;59.17
77090;BME280;66028;53.558;9.950;2024-03-23T10:04:10;100178.34;;;9.75;61.78
77090;BME280;66028;53.558;9.950;2024-03-23T10:06:35;100173.97;;;10.57;62.05
77090;BME280;66028;53.558;9.950;2024-03-23T10:09:01;100168.16;;;10.97;60.02
77090;BME280;66028;53.558;9.950;2024-03-23T10:11:27;100164.53;;;10.16;59.09
77090;BME280;66028;53.558;9.950;2024-03-23T10:13:54;100168.50;;;10.08;59.23
77090;BME280;66028;53.558;9.950;2024-03-23T10:16:24;100154.41;;;10.06;58.93
77090;BME280;66028;53.558;9.950;2024-03-23T10:18:49;100149.75;;;10.45;57.07
77090;BME280;66028;53.558;9.950;2024-03-23T10:21:15;100155.63;;;10.37;56.29
77090;BME280;66028;53.558;9.950;2024-03-23T10:23:42;100154.97;;;10.25;57.22
77090;BME280;66028;53.558;9.950;2024-03-23T10:26:17;100150.53;;;10.19;57.17
77090;BME280;66028;53.558;9.950;2024-03-23T10:29:00;100149.38;;;10.15;59.07
77090;BME280;66028;53.558;9.950;2024-03-23T10:31:30;100160.22;;;9.37;63.40
77090;BME280;66028;53.558;9.950;2024-03-23T10:33:56;100154.41;;;9.29;64.88
77090;BME280;66028;53.558;9.950;2024-03-23T10:36:22;100169.44;;;9.08;69.84
77090;BME280;66028;53.558;9.950;2024-03-23T10:38:49;100167.69;;;8.40;72.26
77090;BME280;66028;53.558;9.950;2024-03-23T10:41:15;100163.75;;;8.08;74.61
77090;BME280;66028;53.558;9.950;2024-03-23T10:43:40;100164.31;;;8.10;80.08
77090;BME280;66028;53.558;9.950;2024-03-23T10:46:06;100154.25;;;8.17;79.22
77090;BME280;66028;53.558;9.950;2024-03-23T10:48:34;100159.28;;;8.13;76.84
77090;BME280;66028;53.558;9.950;2024-03-23T10:51:00;100148.06;;;8.05;76.72
77090;BME280;66028;53.558;9.950;2024-03-23T10:53:26;100151.13;;;7.97;77.72
77090;BME280;66028;53.558;9.950;2024-03-23T10:55:52;100148.66;;;7.95;76.86
77090;BME280;66028;53.558;9.950;2024-03-23T10:58:24;100143.59;;;7.99;77.34
77090;BME280;66028;53.558;9.950;2024-03-23T11:00:52;100138.22;;;7.99;77.29
77090;BME280;66028;53.558;9.950;2024-03-23T11:03:32;100140.69;;;7.88;75.27
77090;BME280;66028;53.558;9.950;2024-03-23T11:05:59;100134.97;;;7.97;75.90
77090;BME280;66028;53.558;9.950;2024-03-23T11:08:39;100138.41;;;8.20;73.28
77090;BME280;66028;53.558;9.950;2024-03-23T11:11:17;100125.81;;;8.38;72.22
77090;BME280;66028;53.558;9.950;2024-03-23T11:13:44;100124.31;;;8.58;72.73
77090;BME280;66028;53.558;9.950;2024-03-23T11:16:29;100122.03;;;8.67;67.50
77090;BME280;66028;53.558;9.950;2024-03-23T11:19:33;100123.41;;;8.70;68.16
77090;BME280;66028;53.558;9.950;2024-03-23T11:21:59;100123.09;;;8.66;66.50
77090;BME280;66028;53.558;9.950;2024-03-23T11:24:24;100127.81;;;8.59;65.92
77090;BME280;66028;53.558;9.950;2024-03-23T11:26:49;100121.09;;;8.45;66.15
77090;BME280;66028;53.558;9.950;2024-03-23T11:29:15;100131.03;;;8.56;66.24
77090;BME280;66028;53.558;9.950;2024-03-23T11:31:50;100126.69;;;8.72;66.74
77090;BME280;66028;53.558;9.950;2024-03-23T11:34:19;100117.47;;;8.84;65.29
77090;BME280;66028;53.558;9.950;2024-03-23T11:36:46;100115.00;;;8.83;66.52
77090;BME280;66028;53.558;9.950;2024-03-23T11:41:48;100114.78;;;9.18;65.73
77090;BME280;66028;53.558;9.950;2024-03-23T11:44:25;100113.72;;;9.02;64.57
77090;BME280;66028;53.558;9.950;2024-03-23T11:46:51;100103.97;;;9.18;62.34
77090;BME280;66028;53.558;9.950;2024-03-23T11:51:49;100109.72;;;9.60;62.73
77090;BME280;66028;53.558;9.950;2024-03-23T11:54:14;100106.28;;;9.64;60.59
77090;BME280;66028;53.558;9.950;2024-03-23T11:56:40;100100.06;;;9.86;60.50
77090;BME280;66028;53.558;9.950;2024-03-23T11:59:06;100113.25;;;10.04;59.39
77090;BME280;66028;53.558;9.950;2024-03-23T12:01:31;100121.56;;;9.75;60.68
77090;BME280;66028;53.558;9.950;2024-03-23T12:03:56;100137.78;;;9.20;59.31
77090;BME280;66028;53.558;9.950;2024-03-23T12:06:21;100154.13;;;8.52;61.52
77090;BME280;66028;53.558;9.950;2024-03-23T12:08:47;100152.72;;;8.21;64.05
77090;BME280;66028;53.558;9.950;2024-03-23T12:11:15;100154.13;;;8.12;67.64
77090;BME280;66028;53.558;9.950;2024-03-23T12:13:45;100133.19;;;8.42;66.42
77090;BME280;66028;53.558;9.950;2024-03-23T12:16:19;100125.34;;;8.41;63.64
77090;BME280;66028;53.558;9.950;2024-03-23T12:18:49;100132.44;;;8.18;62.97
77090;BME280;66028;53.558;9.950;2024-03-23T12:21:16;100127.28;;;8.17;62.83
77090;BME280;66028;53.558;9.950;2024-03-23T12:23:42;100121.28;;;8.15;61.87
77090;BME280;66028;53.558;9.950;2024-03-23T12:26:10;100120.41;;;8.38;63.21
77090;BME280;66028;53.558;9.950;2024-03-23T12:28:35;100121.34;;;8.43;62.63
77090;BME280;66028;53.558;9.950;2024-03-23T12:31:02;100123.41;;;8.70;62.72
77090;BME280;66028;53.558;9.950;2024-03-23T12:33:27;100122.16;;;9.06;62.93
77090;BME280;66028;53.558;9.950;2024-03-23T12:35:53;100145.16;;;8.35;64.69
77090;BME280;66028;53.558;9.950;2024-03-23T12:38:18;100170.59;;;7.29;70.65
77090;BME280;66028;53.558;9.950;2024-03-23T12:40:50;100164.69;;;6.85;74.26
77090;BME280;66028;53.558;9.950;2024-03-23T12:43:16;100165.25;;;6.45;74.06
77090;BME280;66028;53.558;9.950;2024-03-23T12:45:49;100175.28;;;6.38;74.55
77090;BME280;66028;53.558;9.950;2024-03-23T12:48:14;100164.53;;;6.38;74.58
77090;BME280;66028;53.558;9.950;2024-03-23T12:50:39;100167.66;;;6.35;75.75
77090;BME280;66028;53.558;9.950;2024-03-23T12:53:05;100170.50;;;6.22;73.98
77090;BME280;66028;53.558;9.950;2024-03-23T12:55:30;100162.53;;;6.16;75.97
77090;BME280;66028;53.558;9.950;2024-03-23T12:57:55;100176.19;;;6.14;75.04
77090;BME280;66028;53.558;9.950;2024-03-23T13:00:21;100168.13;;;6.14;75.59
77090;BME280;66028;53.558;9.950;2024-03-23T13:02:46;100158.72;;;6.05;74.20
77090;BME280;66028;53.558;9.950;2024-03-23T13:05:12;100161.72;;;6.15;76.27
77090;BME280;66028;53.558;9.950;2024-03-23T13:07:37;100164.22;;;6.28;75.64
77090;BME280;66028;53.558;9.950;2024-03-23T13:10:06;100159.19;;;6.50;74.85
77090;BME280;66028;53.558;9.950;2024-03-23T13:12:32;100174.84;;;6.53;73.78
77090;BME280;66028;53.558;9.950;2024-03-23T13:14:58;100163.22;;;6.71;74.96
77090;BME280;66028;53.558;9.950;2024-03-23T13:17:24;100154.34;;;6.70;73.41
77090;BME280;66028;53.558;9.950;2024-03-23T13:19:49;100162.66;;;6.80;73.13
77090;BME280;66028;53.558;9.950;2024-03-23T13:22:14;100158.78;;;6.76;74.61
77090;BME280;66028;53.558;9.950;2024-03-23T13:24:40;100161.81;;;6.68;73.45
77090;BME280;66028;53.558;9.950;2024-03-23T13:27:05;100151.38;;;6.60;73.36
77090;BME280;66028;53.558;9.950;2024-03-23T13:29:33;100161.00;;;6.68;73.50
77090;BME280;66028;53.558;9.950;2024-03-23T13:31:59;100162.63;;;6.69;72.48
77090;BME280;66028;53.558;9.950;2024-03-23T13:34:24;100162.47;;;7.99;70.18
77090;BME280;66028;53.558;9.950;2024-03-23T13:36:49;100153.09;;;8.53;66.52
77090;BME280;66028;53.558;9.950;2024-03-23T13:39:15;100150.03;;;9.61;66.23
77090;BME280;66028;53.558;9.950;2024-03-23T13:41:42;100146.75;;;10.68;60.83
77090;BME280;66028;53.558;9.950;2024-03-23T13:44:08;100148.72;;;10.51;61.18
77090;BME280;66028;53.558;9.950;2024-03-23T13:46:35;100151.00;;;9.94;61.53
77090;BME280;66028;53.558;9.950;2024-03-23T13:49:00;100157.84;;;10.67;60.68
77090;BME280;66028;53.558;9.950;2024-03-23T13:51:26;100160.47;;;10.13;60.69
77090;BME280;66028;53.558;9.950;2024-03-23T13:53:55;100158.66;;;9.80;61.12